East Middlebury, VT (05740)

6:30 PM EDT on March 27, 2015 (GMT -0400)
Fish Hatchery | | Change Station
CLOSE
Current Station
Personal Weather Station
Location: Salisbury, VT
Elevation: 433 ft
Nearby Weather Stations

Elev 433 ft 43.93 °N, 73.10 °W | Updated 28 seconds ago

Light Snow
Light Snow
32.9 °F
Feels Like 33 °F
N
0.0
Wind Variable Wind from NNW
Gusts 7.0 mph

Today
High -- | Low -- °F
--% Chance of Precip.
Yesterday
High -- | Low -- °F
Precip. -- in
6:43 AM 7:13 PM
First Quarter, 56% visible
Pressure 29.77 in
Visibility 4.0 miles
Clouds Overcast 500 ft
Windchill 33 °F
Dew Point 31 °F
Humidity 92%
Rainfall 0.02 in
Snow Depth Not available.
UV 0 out of 12
Pollen .50 out of 12
Air Quality Not available.
Flu Activity Not available.
METAR K6B0 272215Z AUTO 35005KT 4SM -SN OVC005 01/01 A2977 RMK AO2 T00050005

More Conditions Fewer Conditions

Pressure 29.77 in
Visibility 4.0 miles
Clouds Overcast 500 ft
Windchill 33 °F
Dew Point 31 °F
Humidity 92%
Rainfall 0.02 in
Snow Depth Not available.
UV 0 out of 12
Pollen .50 out of 12
Air Quality Not available.
Flu Activity Not available.
METAR K6B0 272215Z AUTO 35005KT 4SM -SN OVC005 01/01 A2977 RMK AO2 T00050005

More Conditions Fewer Conditions

10-Day Weather Forecast

Almanac

Astronomy

Mar. 27, 2015 Rise Set
Actual Time
Civil Twilight
Nautical Twilight
Astronomical Twilight
Moon
Length of Visible Light
Length of Day
Tomorrow will be .
, % of the Moon is Illuminated

Today's Extremes

State Highs State Lows

Community

WunderPhotos

Upload Photos

1,808,856 photos uploaded!

WunderBlogs® & News

Nearby

Air Quality

  Air Quality AQ Index Pollutant
Not available.

Snow Depth

Station Depth Elevation

Earthquake Activity

City Distance Mag. Time & Date
Minimum magnitude displayed is 2.5.

Coastal Water Temperatures

Place Temperature

Stations

Nearby Weather Stations

Station Location Temp. Windchill Dew Point Humidity Wind Precip. Elev Updated Type